Time;durP1;ratioP1;P1;durP2;ratioP2;P2;SDS_P1;SDS_P2;PMS_P1;PMS_P2;Temp;Humidity;BMP_temperature;BMP_pressure;BME280_temperature;BME280_humidity;BME280_pressure;Samples;Min_cycle;Max_cycle;Signal;HPM_P1;HPM_P2
2022/12/21 00:00:31;;;;;;;;;;;;;;;18.38;62.24;99491.22;2075218;28;20027;-73
2022/12/21 00:01:31;;;;;;;;;;;;;;;18.38;62.39;99488.53;2076039;28;19925;-74
2022/12/21 00:02:34;;;;;;;;;;;;;;;18.36;62.40;99485.22;2079017;28;20612;-74
2022/12/21 00:03:34;;;;;;;;;;;;;;;18.34;62.23;99495.31;2070983;28;20078;-74
2022/12/21 00:04:35;;;;;;;;;;;;;;;18.35;62.10;99491.59;2076578;28;20290;-74
2022/12/21 00:05:36;;;;;;;;;;;;;;;18.36;62.38;99495.13;2072322;28;20080;-73
2022/12/21 00:06:38;;;;;;;;;;;;;;;18.33;62.48;99488.28;2072654;28;20393;-73
2022/12/21 00:07:39;;;;;;;;;;;;;;;18.32;62.57;99491.97;2074235;28;19924;-74
2022/12/21 00:08:42;;;;;;;;;;;;;;;18.33;62.40;99490.97;2079733;28;19951;-74
2022/12/21 00:09:44;;;;;;;;;;;;;;;18.33;62.26;99487.41;2077991;28;19928;-73
2022/12/21 00:10:45;;;;;;;;;;;;;;;18.33;62.08;99488.28;2074582;28;19936;-74
2022/12/21 00:11:46;;;;;;;;;;;;;;;18.30;62.55;99492.16;2074255;28;19928;-73
2022/12/21 00:12:47;;;;;;;;;;;;;;;18.30;62.51;99491.31;2074909;28;20451;-73
2022/12/21 00:13:48;;;;;;;;;;;;;;;18.28;62.61;99491.50;2072408;28;19929;-72
2022/12/21 00:14:50;;;;;;;;;;;;;;;18.29;62.59;99489.66;2076399;28;19924;-73
2022/12/21 00:15:55;;;;;;;;;;;;;;;18.27;62.57;99492.50;2080299;28;19921;-73
2022/12/21 00:16:56;;;;;;;;;;;;;;;18.27;62.56;99486.28;2079541;28;20743;-73
2022/12/21 00:17:57;;;;;;;;;;;;;;;18.26;62.51;99487.31;2078518;28;19935;-73
2022/12/21 00:18:59;;;;;;;;;;;;;;;18.24;62.60;99489.34;2074951;28;21063;-73
2022/12/21 00:20:00;;;;;;;;;;;;;;;18.23;62.45;99488.50;2071891;28;20012;-73
2022/12/21 00:21:02;;;;;;;;;;;;;;;18.23;62.51;99482.31;2075735;28;19928;-73
2022/12/21 00:22:04;;;;;;;;;;;;;;;18.21;62.70;99487.84;2076635;28;19929;-73
2022/12/21 00:23:04;;;;;;;;;;;;;;;18.20;62.54;99490.72;2073836;28;20483;-73
2022/12/21 00:24:06;;;;;;;;;;;;;;;18.17;62.50;99480.34;2076972;28;19931;-73
2022/12/21 00:25:08;;;;;;;;;;;;;;;18.19;62.74;99492.59;2078704;28;19928;-73
2022/12/21 00:26:11;;;;;;;;;;;;;;;18.18;62.64;99488.22;2075873;28;19932;-73
2022/12/21 00:27:12;;;;;;;;;;;;;;;18.19;62.68;99487.22;2074925;28;19924;-73
2022/12/21 00:28:13;;;;;;;;;;;;;;;18.17;62.57;99489.25;2077612;28;19928;-73
2022/12/21 00:29:15;;;;;;;;;;;;;;;18.18;62.44;99484.69;2074211;28;19925;-73
2022/12/21 00:30:15;;;;;;;;;;;;;;;18.16;62.71;99494.78;2074538;28;20002;-73
2022/12/21 00:31:18;;;;;;;;;;;;;;;18.15;62.44;99490.44;2077362;28;20869;-73
2022/12/21 00:32:19;;;;;;;;;;;;;;;18.15;62.69;99485.06;2073467;28;19924;-73
2022/12/21 00:33:21;;;;;;;;;;;;;;;18.14;62.66;99488.78;2071774;28;19960;-73
2022/12/21 00:34:21;;;;;;;;;;;;;;;18.14;62.81;99488.78;2077043;28;19925;-72
2022/12/21 00:35:23;;;;;;;;;;;;;;;18.10;62.59;99488.28;2073977;28;20316;-73
2022/12/21 00:36:25;;;;;;;;;;;;;;;18.09;62.84;99487.44;2073151;28;20309;-73
2022/12/21 00:37:26;;;;;;;;;;;;;;;18.11;62.82;99483.75;2076688;28;19928;-73
2022/12/21 00:38:27;;;;;;;;;;;;;;;18.08;62.88;99483.09;2079422;28;19929;-73
2022/12/21 00:39:28;;;;;;;;;;;;;;;18.08;62.77;99487.66;2065237;28;22054;-73
2022/12/21 00:40:30;;;;;;;;;;;;;;;18.06;62.80;99481.63;2073051;28;19951;-73
2022/12/21 00:41:32;;;;;;;;;;;;;;;18.05;62.87;99483.47;2073642;28;20020;-73
2022/12/21 00:42:32;;;;;;;;;;;;;;;18.05;62.70;99482.59;2074267;28;19924;-73
2022/12/21 00:43:35;;;;;;;;;;;;;;;18.04;63.03;99481.78;2076140;28;20356;-73
2022/12/21 00:44:37;;;;;;;;;;;;;;;18.04;62.97;99484.47;2074838;28;19944;-73
2022/12/21 00:45:37;;;;;;;;;;;;;;;18.04;62.76;99481.78;2077883;28;19924;-73
2022/12/21 00:46:39;;;;;;;;;;;;;;;18.03;62.77;99477.44;2077610;28;19925;-73
2022/12/21 00:47:39;;;;;;;;;;;;;;;18.01;62.85;99482.13;2070184;28;20298;-73
2022/12/21 00:48:41;;;;;;;;;;;;;;;18.00;62.87;99482.34;2077306;28;19928;-73
2022/12/21 00:49:42;;;;;;;;;;;;;;;18.00;62.98;99477.78;2077188;28;19924;-73
2022/12/21 00:50:43;;;;;;;;;;;;;;;17.98;62.69;99479.81;2072815;28;19925;-73
2022/12/21 00:51:44;;;;;;;;;;;;;;;17.98;62.75;99478.97;2070170;28;19933;-73
2022/12/21 00:52:45;;;;;;;;;;;;;;;17.98;62.70;99473.63;2073691;28;19921;-73
2022/12/21 00:53:46;;;;;;;;;;;;;;;18.00;62.89;99479.66;2073314;28;19929;-73
2022/12/21 00:54:48;;;;;;;;;;;;;;;18.00;62.69;99477.78;2077072;28;19921;-73
2022/12/21 00:55:55;;;;;;;;;;;;;;;17.98;62.69;99474.44;2077792;28;19925;-73
2022/12/21 00:56:57;;;;;;;;;;;;;;;17.97;62.98;99477.28;2074397;28;19925;-73
2022/12/21 00:57:57;;;;;;;;;;;;;;;17.98;62.69;99468.25;2076549;28;20202;-73
2022/12/21 00:58:59;;;;;;;;;;;;;;;17.97;62.62;99472.78;2074101;28;20002;-73
2022/12/21 00:59:59;;;;;;;;;;;;;;;17.95;62.90;99479.34;2073400;28;19925;-73
2022/12/21 01:01:04;;;;;;;;;;;;;;;17.94;63.03;99475.84;2076302;28;19924;-73
2022/12/21 01:02:04;;;;;;;;;;;;;;;17.92;62.90;99471.66;2072093;28;19928;-73
2022/12/21 01:03:06;;;;;;;;;;;;;;;17.92;62.74;99477.84;2075975;28;20744;-73
2022/12/21 01:04:07;;;;;;;;;;;;;;;17.92;62.94;99477.84;2075796;28;20369;-73
2022/12/21 01:05:08;;;;;;;;;;;;;;;17.92;63.04;99472.47;2074112;28;19991;-73
2022/12/21 01:06:12;;;;;;;;;;;;;;;17.91;62.81;99472.66;2079496;28;19996;-73
2022/12/21 01:07:15;;;;;;;;;;;;;;;17.90;62.96;99479.03;2080770;28;20464;-73
2022/12/21 01:08:16;;;;;;;;;;;;;;;17.90;62.98;99479.03;2074341;28;19985;-73
2022/12/21 01:09:18;;;;;;;;;;;;;;;17.87;62.82;99474.88;2070474;28;19936;-73
2022/12/21 01:10:18;;;;;;;;;;;;;;;17.87;63.07;99466.81;2072260;28;19998;-73
2022/12/21 01:11:22;;;;;;;;;;;;;;;17.88;62.94;99475.69;2077347;28;19928;-74
2022/12/21 01:12:22;;;;;;;;;;;;;;;17.88;62.98;99473.84;2075050;28;19932;-73
2022/12/21 01:13:24;;;;;;;;;;;;;;;17.86;62.93;99470.53;2076402;28;19920;-73
2022/12/21 01:14:24;;;;;;;;;;;;;;;17.84;63.08;99468.00;2075157;28;19925;-73
2022/12/21 01:15:26;;;;;;;;;;;;;;;17.86;62.86;99467.84;2075047;28;20011;-73
2022/12/21 01:16:27;;;;;;;;;;;;;;;17.84;63.07;99467.16;2078144;28;19981;-73
2022/12/21 01:17:29;;;;;;;;;;;;;;;17.83;62.95;99470.88;2067551;28;19935;-73
2022/12/21 01:18:29;;;;;;;;;;;;;;;17.81;63.13;99463.00;2072491;28;19959;-74
2022/12/21 01:19:31;;;;;;;;;;;;;;;17.82;63.00;99469.19;2072388;28;20663;-73
2022/12/21 01:20:31;;;;;;;;;;;;;;;17.82;62.80;99464.66;2073492;28;19940;-73
2022/12/21 01:21:33;;;;;;;;;;;;;;;17.81;62.89;99470.22;2071198;28;19929;-73
2022/12/21 01:22:34;;;;;;;;;;;;;;;17.80;63.10;99471.22;2068305;28;19920;-73
2022/12/21 01:23:35;;;;;;;;;;;;;;;17.79;62.88;99461.50;2075906;28;19928;-73
2022/12/21 01:24:37;;;;;;;;;;;;;;;17.78;63.04;99458.00;2080761;28;19928;-74
2022/12/21 01:25:38;;;;;;;;;;;;;;;17.78;63.03;99459.81;2075689;28;19927;-73
2022/12/21 01:26:41;;;;;;;;;;;;;;;17.78;63.04;99457.13;2073616;28;20394;-73
2022/12/21 01:27:42;;;;;;;;;;;;;;;17.77;63.18;99463.47;2077635;28;20405;-74
2022/12/21 01:28:43;;;;;;;;;;;;;;;17.76;62.83;99462.66;2076082;28;19935;-74
2022/12/21 01:29:44;;;;;;;;;;;;;;;17.76;63.06;99459.97;2078917;28;19925;-74
2022/12/21 01:30:46;;;;;;;;;;;;;;;17.75;63.06;99457.47;2073386;28;19928;-73
2022/12/21 01:31:46;;;;;;;;;;;;;;;17.72;63.27;99461.34;2074082;28;19921;-73
2022/12/21 01:32:48;;;;;;;;;;;;;;;17.72;62.93;99460.50;2071883;28;19935;-73
2022/12/21 01:33:48;;;;;;;;;;;;;;;17.73;62.88;99464.88;2073604;28;19921;-73
2022/12/21 01:34:50;;;;;;;;;;;;;;;17.76;62.92;99456.47;2073316;28;19921;-73
2022/12/21 01:35:50;;;;;;;;;;;;;;;17.73;62.95;99454.97;2079509;28;19978;-73
2022/12/21 01:36:52;;;;;;;;;;;;;;;17.72;62.94;99453.31;2074154;28;19994;-73
2022/12/21 01:37:52;;;;;;;;;;;;;;;17.73;63.22;99452.28;2072109;28;20390;-73
2022/12/21 01:38:54;;;;;;;;;;;;;;;17.74;62.97;99455.78;2073707;28;19928;-73
2022/12/21 01:39:54;;;;;;;;;;;;;;;17.72;63.18;99449.75;2077164;28;19928;-73
2022/12/21 01:40:56;;;;;;;;;;;;;;;17.73;62.96;99454.97;2076433;28;20589;-73
2022/12/21 01:41:58;;;;;;;;;;;;;;;17.70;63.02;99454.50;2073351;28;20223;-73
2022/12/21 01:42:59;;;;;;;;;;;;;;;17.71;62.96;99448.09;2075609;28;19920;-73
2022/12/21 01:44:00;;;;;;;;;;;;;;;17.68;63.17;99453.81;2080576;28;20920;-73
2022/12/21 01:45:05;;;;;;;;;;;;;;;17.67;63.08;99452.16;2079070;28;19986;-73
2022/12/21 01:46:06;;;;;;;;;;;;;;;17.67;63.30;99452.16;2075051;28;19928;-73
2022/12/21 01:47:11;;;;;;;;;;;;;;;17.67;62.95;99452.16;2072857;28;19931;-73
2022/12/21 01:48:14;;;;;;;;;;;;;;;17.64;63.02;99446.13;2073858;28;19928;-73
2022/12/21 01:49:17;;;;;;;;;;;;;;;17.62;62.94;99441.97;2072270;28;19939;-73
2022/12/21 01:50:30;;;;;;;;;;;;;;;17.60;63.22;99449.34;2077969;28;19967;-73
2022/12/21 01:51:34;;;;;;;;;;;;;;;17.61;63.28;99446.50;2074848;28;19931;-73
2022/12/21 01:52:35;;;;;;;;;;;;;;;17.59;63.21;99445.81;2073293;28;20348;-73
2022/12/21 01:53:38;;;;;;;;;;;;;;;17.60;63.15;99446.66;2076202;28;19936;-72
2022/12/21 01:54:42;;;;;;;;;;;;;;;17.58;63.05;99444.16;2076908;28;19931;-73
2022/12/21 01:55:44;;;;;;;;;;;;;;;17.59;63.00;99443.16;2076730;28;21618;-73
2022/12/21 01:56:48;;;;;;;;;;;;;;;17.59;63.04;99442.31;2073423;28;19924;-73
2022/12/21 01:57:50;;;;;;;;;;;;;;;17.56;63.14;99432.78;2073347;28;20063;-73
2022/12/21 01:58:52;;;;;;;;;;;;;;;17.58;63.27;99435.28;2075437;28;20258;-73
2022/12/21 01:59:54;;;;;;;;;;;;;;;17.57;63.18;99431.75;2083305;28;19951;-73
2022/12/21 02:00:56;;;;;;;;;;;;;;;17.54;63.06;99432.09;2077407;28;20040;-73
2022/12/21 02:01:58;;;;;;;;;;;;;;;17.54;63.17;99428.59;2072316;28;19935;-73
2022/12/21 02:03:01;;;;;;;;;;;;;;;17.55;63.29;99432.94;2074559;28;19924;-73
2022/12/21 02:04:02;;;;;;;;;;;;;;;17.56;63.17;99429.25;2068136;28;20016;-73
2022/12/21 02:05:07;;;;;;;;;;;;;;;17.55;63.19;99430.25;2077210;28;20248;-73
2022/12/21 02:06:10;;;;;;;;;;;;;;;17.52;63.17;99426.06;2078558;28;19925;-72
2022/12/21 02:07:10;;;;;;;;;;;;;;;17.50;63.41;99429.97;2034165;28;1174138;-73
2022/12/21 02:08:12;;;;;;;;;;;;;;;17.49;63.20;99423.75;2074329;28;20023;-73
2022/12/21 02:09:13;;;;;;;;;;;;;;;17.47;63.37;99427.63;2074871;28;20848;-73
2022/12/21 02:10:15;;;;;;;;;;;;;;;17.47;63.30;99425.81;2075205;28;20392;-73
2022/12/21 02:11:16;;;;;;;;;;;;;;;17.47;63.18;99428.47;2078324;28;20032;-74
2022/12/21 02:12:18;;;;;;;;;;;;;;;17.46;63.44;99426.78;2076840;28;19936;-73
2022/12/21 02:13:20;;;;;;;;;;;;;;;17.44;63.33;99420.78;2078563;28;19929;-73
2022/12/21 02:14:22;;;;;;;;;;;;;;;17.42;63.44;99420.13;2067183;28;19924;-73
2022/12/21 02:15:28;;;;;;;;;;;;;;;17.43;63.23;99413.75;2071337;28;19924;-73
2022/12/21 02:16:31;;;;;;;;;;;;;;;17.45;63.35;99413.56;2071395;28;19929;-73
2022/12/21 02:17:36;;;;;;;;;;;;;;;17.41;63.21;99413.06;2063793;28;19964;-73
2022/12/21 02:18:47;;;;;;;;;;;;;;;17.40;63.29;99417.59;2073909;28;19925;-73
2022/12/21 02:20:21;;;;;;;;;;;;;;;17.37;63.67;99409.91;2075363;28;20401;-73
2022/12/21 02:21:23;;;;;;;;;;;;;;;17.38;63.35;99414.28;2052568;28;20003;-73
2022/12/21 02:22:30;;;;;;;;;;;;;;;17.37;63.30;99415.28;2051877;28;19945;-73
2022/12/21 02:23:48;;;;;;;;;;;;;;;17.37;63.39;99419.81;2048159;28;19980;-73
2022/12/21 02:25:09;;;;;;;;;;;;;;;17.37;63.49;99412.59;2047454;28;20636;-73
2022/12/21 02:26:22;;;;;;;;;;;;;;;17.37;63.27;99407.25;2046369;28;20401;-73
2022/12/21 02:27:42;;;;;;;;;;;;;;;17.37;63.32;99417.13;2062386;28;21126;-73
2022/12/21 02:29:03;;;;;;;;;;;;;;;17.37;63.38;99409.91;2074246;28;19988;-73
2022/12/21 02:30:08;;;;;;;;;;;;;;;17.38;63.40;99410.75;2071648;28;19929;-73
2022/12/21 02:31:18;;;;;;;;;;;;;;;17.36;63.41;99404.75;2075794;28;19932;-73
2022/12/21 02:32:24;;;;;;;;;;;;;;;17.37;63.30;99403.72;2078324;28;19924;-73
2022/12/21 02:33:31;;;;;;;;;;;;;;;17.33;63.59;99400.56;2073287;28;20027;-73
2022/12/21 02:34:35;;;;;;;;;;;;;;;17.34;63.32;99401.41;2074616;28;20258;-73
2022/12/21 02:35:39;;;;;;;;;;;;;;;17.33;63.56;99397.06;2073751;28;19978;-73
2022/12/21 02:36:44;;;;;;;;;;;;;;;17.34;63.45;99388.00;2079292;28;20054;-74
2022/12/21 02:37:50;;;;;;;;;;;;;;;17.32;63.48;99390.00;2076591;28;19931;-73
2022/12/21 02:38:59;;;;;;;;;;;;;;;17.31;63.29;99391.03;2070091;28;19925;-73
2022/12/21 02:40:03;;;;;;;;;;;;;;;17.29;63.59;99391.19;2075551;28;19932;-74
2022/12/21 02:41:08;;;;;;;;;;;;;;;17.29;63.54;99393.03;2075465;28;19977;-73
2022/12/21 02:44:12;;;;;;;;;;;;;;;17.28;63.55;99394.91;2078757;28;20069;-73
2022/12/21 02:45:03;;;;;;;;;;;;;;;17.27;63.45;99393.22;2079985;28;19921;-73
2022/12/21 02:46:08;;;;;;;;;;;;;;;17.24;63.55;99401.59;2076036;28;20582;-73
2022/12/21 02:47:14;;;;;;;;;;;;;;;17.26;63.46;99394.22;2077392;28;20009;-73
2022/12/21 02:48:18;;;;;;;;;;;;;;;17.23;63.40;99386.53;2079213;28;20575;-73
2022/12/21 02:49:24;;;;;;;;;;;;;;;17.23;63.56;99393.75;2078014;28;19931;-73
2022/12/21 02:50:29;;;;;;;;;;;;;;;17.20;63.65;99398.44;2076434;28;21081;-73
2022/12/21 02:51:33;;;;;;;;;;;;;;;17.20;63.64;99387.72;2076481;28;19936;-73
2022/12/21 02:52:36;;;;;;;;;;;;;;;17.22;63.74;99389.38;2077451;28;19924;-73
2022/12/21 02:53:39;;;;;;;;;;;;;;;17.19;63.69;99394.13;2075082;28;20064;-73
2022/12/21 02:54:40;;;;;;;;;;;;;;;17.21;63.61;99393.91;2080091;28;20404;-73
2022/12/21 02:55:41;;;;;;;;;;;;;;;17.19;63.45;99388.75;2076319;28;19964;-73
2022/12/21 02:56:42;;;;;;;;;;;;;;;17.19;63.61;99394.13;2074222;28;19928;-73
2022/12/21 02:57:44;;;;;;;;;;;;;;;17.17;63.46;99384.56;2075982;28;19964;-73
2022/12/21 02:58:45;;;;;;;;;;;;;;;17.17;63.72;99395.28;2076280;28;19928;-73
2022/12/21 02:59:49;;;;;;;;;;;;;;;17.14;63.68;99396.47;2080594;28;19931;-73
2022/12/21 03:01:01;;;;;;;;;;;;;;;17.15;63.55;99395.47;2078541;28;19928;-73
2022/12/21 03:02:12;;;;;;;;;;;;;;;17.15;63.88;99390.09;2080423;28;20605;-73
2022/12/21 03:04:56;;;;;;;;;;;;;;;17.14;63.76;99391.13;2080457;28;20019;-74
2022/12/21 03:06:02;;;;;;;;;;;;;;;17.14;63.74;99396.47;2075961;28;22483;-73
2022/12/21 03:07:19;;;;;;;;;;;;;;;17.13;63.81;99388.59;2075981;28;21690;-73
2022/12/21 03:08:25;;;;;;;;;;;;;;;17.13;63.69;99384.09;2068980;28;19931;-74
2022/12/21 03:09:32;;;;;;;;;;;;;;;17.11;63.89;99391.47;2074629;28;20448;-73
2022/12/21 03:10:40;;;;;;;;;;;;;;;17.11;63.51;99391.47;2078751;28;20385;-73
2022/12/21 03:11:47;;;;;;;;;;;;;;;17.10;63.72;99389.78;2074592;28;20481;-73
2022/12/21 03:12:53;;;;;;;;;;;;;;;17.10;63.68;99389.78;2079863;28;20329;-73
2022/12/21 03:13:59;;;;;;;;;;;;;;;17.10;63.77;99388.97;2070934;28;20058;-74
2022/12/21 03:15:05;;;;;;;;;;;;;;;17.10;63.87;99384.44;2074924;28;19925;-73
2022/12/21 03:16:12;;;;;;;;;;;;;;;17.10;63.62;99386.28;2071014;28;19936;-73
2022/12/21 03:17:18;;;;;;;;;;;;;;;17.09;63.64;99384.63;2077055;28;19925;-73
2022/12/21 03:18:25;;;;;;;;;;;;;;;17.08;63.67;99391.84;2076730;28;20382;-73
2022/12/21 03:19:30;;;;;;;;;;;;;;;17.06;63.83;99388.47;2075601;28;20348;-73
2022/12/21 03:20:36;;;;;;;;;;;;;;;17.06;63.62;99385.81;2076922;28;19924;-73
2022/12/21 03:21:39;;;;;;;;;;;;;;;17.06;63.84;99377.75;2070459;28;19929;-72
2022/12/21 03:22:42;;;;;;;;;;;;;;;17.08;63.69;99386.47;2069489;28;21116;-72
2022/12/21 03:23:45;;;;;;;;;;;;;;;17.08;63.65;99389.16;2074150;28;20289;-73
2022/12/21 03:24:50;;;;;;;;;;;;;;;17.07;63.65;99382.09;2072502;28;19925;-73
2022/12/21 03:25:54;;;;;;;;;;;;;;;17.04;63.61;99385.13;2073834;28;21314;-73
2022/12/21 03:26:57;;;;;;;;;;;;;;;17.04;63.75;99373.59;2073898;28;20978;-73
2022/12/21 03:28:01;;;;;;;;;;;;;;;17.03;63.73;99377.28;2076483;28;21010;-74
2022/12/21 03:29:04;;;;;;;;;;;;;;;17.03;63.82;99379.97;2073032;28;19920;-73
2022/12/21 03:30:06;;;;;;;;;;;;;;;17.03;63.99;99379.97;2076992;28;20468;-73
2022/12/21 03:31:11;;;;;;;;;;;;;;;17.01;64.01;99376.63;2074052;28;20048;-74
2022/12/21 03:32:14;;;;;;;;;;;;;;;17.03;63.80;99372.75;2079732;28;19950;-73
2022/12/21 03:33:18;;;;;;;;;;;;;;;17.01;63.85;99373.94;2070448;28;19929;-73
2022/12/21 03:34:22;;;;;;;;;;;;;;;17.00;63.93;99367.75;2067489;28;19927;-73
2022/12/21 03:35:26;;;;;;;;;;;;;;;17.00;63.74;99369.59;2073187;28;19924;-73
2022/12/21 03:36:30;;;;;;;;;;;;;;;16.99;63.91;99366.06;2070109;28;19925;-73
2022/12/21 03:37:35;;;;;;;;;;;;;;;16.99;63.83;99363.38;2068601;28;20018;-74
2022/12/21 03:38:40;;;;;;;;;;;;;;;17.01;63.79;99369.41;2071355;28;19936;-73
2022/12/21 03:39:44;;;;;;;;;;;;;;;17.00;63.72;99364.25;2073234;28;20047;-73
2022/12/21 03:40:47;;;;;;;;;;;;;;;16.98;63.94;99359.03;2074931;28;20338;-73
2022/12/21 03:41:51;;;;;;;;;;;;;;;16.98;63.72;99359.88;2078791;28;19932;-73
2022/12/21 03:42:57;;;;;;;;;;;;;;;16.96;63.57;99356.53;2075475;28;19956;-73
2022/12/21 03:44:01;;;;;;;;;;;;;;;16.96;63.79;99356.53;2068791;28;19979;-73
2022/12/21 03:45:04;;;;;;;;;;;;;;;16.95;63.97;99351.34;2073203;28;19924;-73
2022/12/21 03:46:08;;;;;;;;;;;;;;;16.94;63.96;99352.38;2067962;28;19935;-73
2022/12/21 03:47:12;;;;;;;;;;;;;;;16.94;63.98;99349.69;2074884;28;20342;-73
2022/12/21 03:48:18;;;;;;;;;;;;;;;16.92;63.96;99351.72;2074194;28;19936;-73
2022/12/21 03:49:22;;;;;;;;;;;;;;;16.94;63.77;99347.00;2076448;28;19921;-73
2022/12/21 03:50:25;;;;;;;;;;;;;;;16.93;63.86;99350.69;2072844;28;19932;-73
2022/12/21 03:51:29;;;;;;;;;;;;;;;16.93;63.74;99350.69;2077971;28;20578;-73
2022/12/21 03:52:34;;;;;;;;;;;;;;;16.94;63.88;99347.00;2075628;28;19925;-73
2022/12/21 03:53:40;;;;;;;;;;;;;;;16.95;63.85;99348.66;2072009;28;22011;-73
2022/12/21 03:54:44;;;;;;;;;;;;;;;16.95;63.80;99349.50;2076813;28;20007;-73
2022/12/21 03:55:48;;;;;;;;;;;;;;;16.95;63.61;99357.53;2074500;28;20553;-73
2022/12/21 03:56:49;;;;;;;;;;;;;;;16.94;63.71;99358.56;2076313;28;19928;-73
2022/12/21 03:57:51;;;;;;;;;;;;;;;16.92;63.72;99355.22;2073000;28;19924;-73
2022/12/21 03:58:52;;;;;;;;;;;;;;;16.92;63.72;99359.75;2074781;28;20950;-73
2022/12/21 03:59:55;;;;;;;;;;;;;;;16.93;63.74;99359.56;2070484;28;19924;-74
2022/12/21 04:01:07;;;;;;;;;;;;;;;16.94;63.80;99363.09;2074008;28;19932;-73
2022/12/21 04:02:11;;;;;;;;;;;;;;;16.91;63.76;99355.38;2079448;28;19964;-73
2022/12/21 04:03:16;;;;;;;;;;;;;;;16.90;63.88;99359.06;2071586;28;20381;-73
2022/12/21 04:04:20;;;;;;;;;;;;;;;16.88;63.97;99361.09;2077095;28;19941;-73
2022/12/21 04:05:26;;;;;;;;;;;;;;;16.88;63.99;99363.75;2079749;28;20595;-73
2022/12/21 04:06:29;;;;;;;;;;;;;;;16.90;63.75;99364.44;2072565;28;21477;-73
2022/12/21 04:07:31;;;;;;;;;;;;;;;16.89;63.78;99354.75;2072252;28;19968;-73
2022/12/21 04:08:32;;;;;;;;;;;;;;;16.87;63.97;99354.91;2070813;28;19925;-73
2022/12/21 04:09:33;;;;;;;;;;;;;;;16.88;63.76;99348.56;2078174;28;20371;-73
2022/12/21 04:10:35;;;;;;;;;;;;;;;16.88;63.79;99350.38;2073403;28;19993;-74
2022/12/21 04:12:56;;;;;;;;;;;;;;;16.88;63.78;99350.38;2071603;28;19983;-73
2022/12/21 04:13:56;;;;;;;;;;;;;;;16.88;63.87;99355.72;2068808;28;19925;-73
2022/12/21 04:14:58;;;;;;;;;;;;;;;16.84;63.99;99346.38;2072881;28;19920;-73
2022/12/21 04:16:05;;;;;;;;;;;;;;;16.85;63.78;99348.03;2071198;28;19925;-73
2022/12/21 04:17:06;;;;;;;;;;;;;;;16.84;63.91;99339.19;2078534;28;20007;-73
2022/12/21 04:18:07;;;;;;;;;;;;;;;16.85;63.87;99345.38;2075902;28;19943;-73
2022/12/21 04:20:28;;;;;;;;;;;;;;;16.82;63.92;99337.69;2069862;28;21272;-73
2022/12/21 04:21:29;;;;;;;;;;;;;;;16.80;63.85;99345.03;2075621;28;20031;-73
2022/12/21 04:29:07;;;;;;;;;;;;;;;16.80;63.85;99343.22;2076393;28;19972;-73
2022/12/21 04:30:08;;;;;;;;;;;;;;;16.79;63.95;99338.84;2076042;28;19924;-73
2022/12/21 04:31:09;;;;;;;;;;;;;;;16.80;63.90;99342.38;2074753;28;19936;-73
2022/12/21 04:32:10;;;;;;;;;;;;;;;16.78;63.97;99342.56;2067545;28;19932;-73
2022/12/21 04:33:12;;;;;;;;;;;;;;;16.78;64.04;99331.84;2069704;28;20010;-73
2022/12/21 04:34:13;;;;;;;;;;;;;;;16.77;63.89;99332.00;2070657;28;19993;-73
2022/12/21 04:35:14;;;;;;;;;;;;;;;16.77;63.90;99329.31;2071627;28;20012;-73
2022/12/21 04:37:37;;;;;;;;;;;;;;;16.76;63.82;99336.50;2071359;28;19925;-73
2022/12/21 04:38:39;;;;;;;;;;;;;;;16.73;63.93;99329.66;2070015;28;19948;-73
2022/12/21 04:39:41;;;;;;;;;;;;;;;16.77;63.85;99329.31;2073731;28;19921;-73
2022/12/21 04:40:41;;;;;;;;;;;;;;;16.77;64.11;99329.31;2070528;28;19924;-73
2022/12/21 04:41:43;;;;;;;;;;;;;;;16.77;64.10;99324.81;2075987;28;19920;-73
2022/12/21 04:42:43;;;;;;;;;;;;;;;16.77;63.94;99318.63;2076696;28;19940;-73
2022/12/21 04:43:45;;;;;;;;;;;;;;;16.76;63.95;99320.44;2076374;28;19920;-73
2022/12/21 04:44:45;;;;;;;;;;;;;;;16.74;64.02;99323.31;2071627;28;19933;-73
2022/12/21 04:45:47;;;;;;;;;;;;;;;16.74;64.07;99315.25;2077948;28;19928;-73
2022/12/21 04:46:47;;;;;;;;;;;;;;;16.72;63.89;99317.28;2074793;28;19931;-73
2022/12/21 04:47:52;;;;;;;;;;;;;;;16.71;63.98;99312.91;2072291;28;19920;-73
2022/12/21 04:48:52;;;;;;;;;;;;;;;16.68;64.00;99307.91;2075220;28;19920;-73
2022/12/21 04:49:54;;;;;;;;;;;;;;;16.70;63.83;99311.25;2075771;28;19974;-73
2022/12/21 04:50:54;;;;;;;;;;;;;;;16.74;63.92;99314.41;2074482;28;19921;-73
2022/12/21 04:51:57;;;;;;;;;;;;;;;16.80;63.61;99315.56;2077147;28;19929;-73
2022/12/21 04:52:58;;;;;;;;;;;;;;;16.86;63.45;99318.41;2071174;28;19925;-73
2022/12/21 04:53:59;;;;;;;;;;;;;;;16.92;63.34;99316.88;2075670;28;20004;-73
2022/12/21 04:55:00;;;;;;;;;;;;;;;17.01;63.06;99307.78;2075067;28;19929;-73
2022/12/21 04:56:02;;;;;;;;;;;;;;;17.07;62.88;99309.72;2069736;28;20007;-73
2022/12/21 04:57:02;;;;;;;;;;;;;;;17.14;62.78;99308.03;2076347;28;19933;-73
2022/12/21 04:58:04;;;;;;;;;;;;;;;17.20;62.76;99304.63;2074146;28;19944;-73
2022/12/21 04:59:04;;;;;;;;;;;;;;;17.27;62.49;99310.09;2072134;28;19925;-73
2022/12/21 05:00:06;;;;;;;;;;;;;;;17.32;62.33;99302.34;2071617;28;21410;-73
2022/12/21 05:01:08;;;;;;;;;;;;;;;17.37;62.34;99312.56;2074243;28;19970;-73
2022/12/21 05:02:09;;;;;;;;;;;;;;;17.42;62.43;99305.66;2072398;28;19925;-73
2022/12/21 05:03:10;;;;;;;;;;;;;;;17.46;62.21;99318.69;2073126;28;20377;-73
2022/12/21 05:04:11;;;;;;;;;;;;;;;17.49;62.17;99310.28;2069255;28;19920;-73
2022/12/21 05:05:12;;;;;;;;;;;;;;;17.52;62.19;99305.38;2073959;28;19945;-73
2022/12/21 05:06:14;;;;;;;;;;;;;;;17.54;62.33;99311.41;2075939;28;20453;-73
2022/12/21 05:07:17;;;;;;;;;;;;;;;17.57;62.20;99311.03;2072746;28;19936;-73
2022/12/21 05:08:19;;;;;;;;;;;;;;;17.59;62.13;99310.88;2071633;28;19928;-73
2022/12/21 05:09:19;;;;;;;;;;;;;;;17.62;62.20;99308.66;2077796;28;20664;-73
2022/12/21 05:10:21;;;;;;;;;;;;;;;17.65;62.18;99296.75;2074616;28;20474;-73
2022/12/21 05:11:23;;;;;;;;;;;;;;;17.67;62.24;99297.41;2074000;28;19982;-73
2022/12/21 05:12:24;;;;;;;;;;;;;;;17.69;62.13;99291.84;2072738;28;19921;-73
2022/12/21 05:13:25;;;;;;;;;;;;;;;17.72;62.23;99291.47;2074973;28;20346;-73
2022/12/21 05:14:26;;;;;;;;;;;;;;;17.73;62.01;99293.16;2076701;28;19928;-73
2022/12/21 05:15:27;;;;;;;;;;;;;;;17.77;62.32;99297.94;2076710;28;19929;-73
2022/12/21 05:16:28;;;;;;;;;;;;;;;17.80;62.03;99294.97;2076331;28;20004;-73
2022/12/21 05:17:29;;;;;;;;;;;;;;;17.85;62.05;99297.09;2077443;28;19921;-73
2022/12/21 05:18:30;;;;;;;;;;;;;;;17.85;62.11;99300.59;2072518;28;19978;-74
2022/12/21 05:19:31;;;;;;;;;;;;;;;17.88;62.02;99294.03;2077614;28;20297;-73
2022/12/21 05:20:32;;;;;;;;;;;;;;;17.88;61.90;99291.34;2070564;28;19960;-73
2022/12/21 05:21:33;;;;;;;;;;;;;;;17.94;62.14;99289.78;2073718;28;20325;-73
2022/12/21 05:22:36;;;;;;;;;;;;;;;17.96;61.82;99291.28;2070644;28;19924;-73
2022/12/21 05:23:36;;;;;;;;;;;;;;;17.99;61.93;99293.59;2077974;28;19921;-73
2022/12/21 05:24:38;;;;;;;;;;;;;;;17.99;61.84;99290.06;2073011;28;20424;-73
2022/12/21 05:25:38;;;;;;;;;;;;;;;18.02;61.80;99290.53;2074994;28;20476;-74
2022/12/21 05:26:40;;;;;;;;;;;;;;;18.04;61.81;99290.34;2072178;28;19924;-73
2022/12/21 05:27:41;;;;;;;;;;;;;;;18.07;61.65;99288.13;2076405;28;19936;-73
2022/12/21 05:28:42;;;;;;;;;;;;;;;18.08;61.97;99289.81;2075361;28;20023;-73
2022/12/21 05:29:44;;;;;;;;;;;;;;;18.10;61.89;99286.94;2077870;28;20107;-73
2022/12/21 05:30:44;;;;;;;;;;;;;;;18.12;61.96;99289.44;2069213;28;19928;-73
2022/12/21 05:31:46;;;;;;;;;;;;;;;18.16;61.63;99298.78;2079078;28;19933;-73
2022/12/21 05:32:46;;;;;;;;;;;;;;;18.18;61.81;99291.38;2073231;28;20451;-73
2022/12/21 05:33:48;;;;;;;;;;;;;;;18.20;61.80;99287.50;2071272;28;19925;-73
2022/12/21 05:34:49;;;;;;;;;;;;;;;18.21;61.54;99301.75;2074505;28;19955;-73
2022/12/21 05:35:50;;;;;;;;;;;;;;;18.23;61.85;99297.88;2076198;28;19948;-73
2022/12/21 05:36:52;;;;;;;;;;;;;;;18.23;61.67;99305.09;2071468;28;19925;-73
2022/12/21 05:37:54;;;;;;;;;;;;;;;18.28;61.79;99302.69;2077470;28;20001;-73
2022/12/21 05:38:56;;;;;;;;;;;;;;;18.30;61.72;99306.00;2077557;28;19927;-73
2022/12/21 05:39:56;;;;;;;;;;;;;;;18.30;61.63;99301.50;2072292;28;20463;-73
2022/12/21 05:40:58;;;;;;;;;;;;;;;18.33;61.62;99300.28;2074662;28;19929;-73
2022/12/21 05:41:58;;;;;;;;;;;;;;;18.35;61.70;99292.84;2075292;28;19998;-73